createdAt,value
2019-05-09T00:00:37.716Z,10.13
2019-05-09T00:03:07.594Z,10.20
2019-05-09T00:05:37.726Z,11.20
2019-05-09T00:08:07.491Z,10.10
2019-05-09T00:10:41.760Z,14.70
2019-05-09T00:13:09.721Z,9.90
2019-05-09T00:15:40.045Z,13.13
2019-05-09T00:18:10.371Z,11.10
2019-05-09T00:20:48.272Z,11.87
2019-05-09T00:23:18.393Z,9.70
2019-05-09T00:25:48.509Z,10.10
2019-05-09T00:28:19.045Z,10.40
2019-05-09T00:31:03.394Z,9.70
2019-05-09T00:33:34.542Z,9.63
2019-05-09T00:36:04.759Z,10.00
2019-05-09T00:38:45.319Z,10.00
2019-05-09T00:41:15.441Z,9.60
2019-05-09T00:43:47.195Z,10.67
2019-05-09T00:46:23.550Z,9.63
2019-05-09T00:48:54.805Z,14.00
2019-05-09T00:51:24.933Z,9.70
2019-05-09T00:53:55.052Z,11.20
2019-05-09T00:56:25.167Z,8.13
2019-05-09T00:58:55.506Z,9.93
2019-05-09T01:01:25.814Z,10.10
2019-05-09T01:03:55.931Z,10.43
2019-05-09T01:06:26.068Z,9.93
2019-05-09T01:08:56.170Z,11.37
2019-05-09T01:11:26.290Z,10.00
2019-05-09T01:13:56.614Z,10.40
2019-05-09T01:16:26.732Z,9.67
2019-05-09T01:18:56.852Z,9.60
2019-05-09T01:21:26.970Z,10.77
2019-05-09T01:23:57.090Z,10.33
2019-05-09T01:26:27.210Z,11.03
2019-05-09T01:28:57.331Z,11.67
2019-05-09T01:31:27.655Z,13.10
2019-05-09T01:34:04.118Z,12.40
2019-05-09T01:36:54.061Z,12.43
2019-05-09T01:39:24.641Z,12.40
2019-05-09T01:41:54.756Z,12.30
2019-05-09T01:44:25.083Z,12.13
2019-05-09T01:46:55.047Z,10.93
2019-05-09T01:49:25.114Z,14.10
2019-05-09T01:51:55.229Z,11.87
2019-05-09T01:54:26.696Z,12.03
2019-05-09T01:56:56.900Z,14.20
2019-05-09T01:59:27.430Z,12.03
2019-05-09T02:01:57.494Z,12.87
2019-05-09T02:04:27.673Z,12.83
2019-05-09T02:06:57.786Z,12.13
2019-05-09T02:09:27.837Z,12.90
2019-05-09T02:11:58.231Z,14.20
2019-05-09T02:14:29.986Z,13.33
2019-05-09T02:17:08.094Z,11.90
2019-05-09T02:19:40.059Z,12.87
2019-05-09T02:22:28.408Z,12.97
2019-05-09T02:25:10.211Z,17.10
2019-05-09T02:27:40.519Z,15.40
2019-05-09T02:30:15.385Z,15.03
2019-05-09T02:32:45.039Z,17.10
2019-05-09T02:35:15.920Z,15.57
2019-05-09T02:37:49.494Z,17.90
2019-05-09T02:40:18.840Z,15.70
2019-05-09T02:42:49.319Z,13.80
2019-05-09T02:45:20.616Z,19.00
2019-05-09T02:47:50.637Z,17.10
2019-05-09T02:50:20.810Z,19.10
2019-05-09T02:52:50.784Z,16.87
2019-05-09T02:55:21.047Z,18.57
2019-05-09T02:57:52.809Z,18.73
2019-05-09T03:00:28.789Z,21.63
2019-05-09T03:03:09.238Z,24.33
2019-05-09T03:05:38.541Z,20.90
2019-05-09T03:08:09.485Z,21.57
2019-05-09T03:10:39.938Z,24.97
2019-05-09T03:13:10.113Z,21.83
2019-05-09T03:15:40.677Z,20.23
2019-05-09T03:18:10.960Z,21.10
2019-05-09T03:20:49.232Z,23.47
2019-05-09T03:23:19.625Z,23.00
2019-05-09T03:25:49.921Z,22.37
2019-05-09T03:28:24.543Z,23.87
2019-05-09T03:30:59.200Z,20.23
2019-05-09T03:33:29.567Z,24.17
2019-05-09T03:35:59.707Z,24.70
2019-05-09T03:38:29.938Z,25.07
2019-05-09T03:41:00.056Z,29.53
2019-05-09T03:43:30.379Z,25.07
2019-05-09T03:46:14.226Z,22.37
2019-05-09T03:48:47.829Z,24.93
2019-05-09T03:51:18.338Z,24.60
2019-05-09T03:53:48.678Z,27.13
2019-05-09T03:56:27.389Z,26.33
2019-05-09T03:58:57.953Z,28.70
2019-05-09T04:01:28.253Z,32.70
2019-05-09T04:03:58.575Z,31.47
2019-05-09T04:06:28.900Z,26.20
2019-05-09T04:08:59.219Z,29.00
2019-05-09T04:11:29.342Z,33.87
2019-05-09T04:14:01.506Z,30.50
2019-05-09T04:16:31.831Z,28.80
2019-05-09T04:19:02.163Z,30.90
2019-05-09T04:21:32.480Z,31.83
2019-05-09T04:24:03.016Z,32.80
2019-05-09T04:26:34.968Z,31.13
2019-05-09T04:29:05.088Z,30.60
2019-05-09T04:31:35.208Z,32.70
2019-05-09T04:34:09.397Z,31.33
2019-05-09T04:36:39.952Z,35.00
2019-05-09T04:39:21.029Z,35.70
2019-05-09T04:41:43.887Z,37.83
2019-05-09T04:44:32.632Z,37.87
2019-05-09T04:47:03.868Z,32.90
2019-05-09T04:49:39.589Z,35.70
2019-05-09T04:52:07.679Z,31.93
2019-05-09T04:54:38.430Z,37.47
2019-05-09T04:57:08.971Z,32.80
2019-05-09T04:59:39.291Z,38.80
2019-05-09T05:02:29.369Z,41.37
2019-05-09T05:05:07.532Z,35.27
2019-05-09T05:07:37.708Z,44.13
2019-05-09T05:10:09.032Z,47.20
2019-05-09T05:12:39.581Z,47.33
2019-05-09T05:15:10.732Z,42.90
2019-05-09T05:17:41.050Z,40.23
2019-05-09T05:20:13.015Z,43.07
2019-05-09T05:22:44.765Z,40.03
2019-05-09T05:25:14.885Z,43.33
2019-05-09T05:27:46.958Z,39.43
2019-05-09T05:30:18.024Z,40.37
2019-05-09T05:32:50.162Z,36.63
2019-05-09T05:35:28.447Z,43.40
2019-05-09T05:37:58.796Z,36.63
2019-05-09T05:40:33.315Z,37.00
2019-05-09T05:43:00.678Z,40.00
2019-05-09T05:45:32.634Z,38.40
2019-05-09T05:48:13.403Z,39.27
2019-05-09T05:50:43.726Z,38.17
2019-05-09T05:53:13.696Z,42.27
2019-05-09T05:55:43.836Z,40.07
2019-05-09T05:58:13.922Z,40.00
2019-05-09T06:00:44.036Z,40.63
2019-05-09T06:03:14.323Z,40.07
2019-05-09T06:05:44.648Z,38.70
2019-05-09T06:08:14.763Z,41.60
2019-05-09T06:10:44.884Z,36.63
2019-05-09T06:13:14.850Z,38.57
2019-05-09T06:15:45.157Z,41.37
2019-05-09T06:18:15.271Z,41.80
2019-05-09T06:20:48.045Z,38.80
2019-05-09T06:23:17.589Z,40.77
2019-05-09T06:25:48.581Z,38.27
2019-05-09T06:28:19.000Z,39.13
2019-05-09T06:30:49.322Z,36.90
2019-05-09T06:33:19.439Z,38.60
2019-05-09T06:35:49.857Z,35.03
2019-05-09T06:38:20.096Z,39.90
2019-05-09T06:40:50.207Z,38.30
2019-05-09T06:43:29.036Z,37.70
2019-05-09T06:46:13.176Z,42.57
2019-05-09T06:48:43.502Z,38.80
2019-05-09T06:51:13.957Z,37.30
2019-05-09T06:53:44.064Z,37.70
2019-05-09T06:56:14.220Z,35.77
2019-05-09T06:58:44.796Z,37.80
2019-05-09T07:01:34.578Z,39.67
2019-05-09T07:04:11.840Z,36.10
2019-05-09T07:06:44.054Z,36.53
2019-05-09T07:09:17.523Z,35.90
2019-05-09T07:11:48.663Z,34.70
2019-05-09T07:14:40.952Z,31.87
2019-05-09T07:17:08.881Z,32.37
2019-05-09T07:19:38.873Z,32.90
2019-05-09T07:22:10.965Z,33.10
2019-05-09T07:25:05.884Z,38.93
2019-05-09T07:27:35.574Z,30.87
2019-05-09T07:30:28.862Z,27.87
2019-05-09T07:33:08.594Z,34.10
2019-05-09T07:35:41.366Z,28.13
2019-05-09T07:38:14.382Z,37.43
2019-05-09T07:40:47.615Z,24.63
2019-05-09T07:43:18.025Z,27.37
2019-05-09T07:46:08.987Z,24.60
2019-05-09T07:48:42.265Z,28.50
2019-05-09T07:51:12.387Z,25.47
2019-05-09T07:53:42.519Z,29.27
2019-05-09T07:56:12.625Z,26.37
2019-05-09T07:58:42.955Z,26.70
2019-05-09T08:01:13.068Z,24.43
2019-05-09T08:03:43.393Z,26.07
2019-05-09T08:06:13.515Z,32.13
2019-05-09T08:08:43.637Z,29.27
2019-05-09T08:11:14.161Z,24.53
2019-05-09T08:13:44.278Z,23.50
2019-05-09T08:16:14.823Z,30.77
2019-05-09T08:18:45.133Z,25.70
2019-05-09T08:21:15.253Z,33.77
2019-05-09T08:23:45.375Z,23.80
2019-05-09T08:26:15.693Z,22.73
2019-05-09T08:28:48.017Z,21.63
2019-05-09T08:31:17.911Z,28.30
2019-05-09T08:33:48.686Z,23.90
2019-05-09T08:36:20.197Z,15.83
2019-05-09T08:38:50.387Z,16.63
2019-05-09T08:41:20.508Z,30.97
2019-05-09T08:43:50.831Z,18.33
2019-05-09T08:46:20.947Z,19.37
2019-05-09T08:48:51.274Z,18.93
2019-05-09T08:51:23.031Z,23.37
2019-05-09T08:53:53.354Z,18.60
2019-05-09T08:56:23.476Z,19.80
2019-05-09T08:58:53.481Z,16.90
2019-05-09T09:01:35.265Z,12.73
2019-05-09T09:03:57.521Z,16.60
2019-05-09T09:06:27.837Z,21.40
2019-05-09T09:08:58.371Z,17.73
2019-05-09T09:11:28.905Z,23.60
2019-05-09T09:13:59.037Z,17.17
2019-05-09T09:16:29.140Z,13.90
2019-05-09T09:18:59.261Z,17.80
2019-05-09T09:21:30.604Z,19.53
2019-05-09T09:24:00.725Z,14.63
2019-05-09T09:26:30.842Z,18.40
2019-05-09T09:29:00.963Z,26.90
2019-05-09T09:31:31.083Z,11.20
2019-05-09T09:34:01.406Z,16.60
2019-05-09T09:36:31.530Z,20.53
2019-05-09T09:39:03.097Z,18.80
2019-05-09T09:41:33.814Z,17.50
2019-05-09T09:44:04.342Z,17.93
2019-05-09T09:46:34.665Z,14.03
2019-05-09T09:49:04.768Z,18.90
2019-05-09T09:51:35.106Z,16.73
2019-05-09T09:54:08.533Z,16.23
2019-05-09T09:56:38.591Z,16.23
2019-05-09T09:59:18.847Z,15.97
2019-05-09T10:01:49.921Z,16.17
2019-05-09T10:04:24.232Z,12.97
2019-05-09T10:06:53.159Z,21.27
2019-05-09T10:09:23.350Z,22.03
2019-05-09T10:11:56.869Z,24.43
2019-05-09T10:14:29.739Z,12.90
2019-05-09T10:17:21.152Z,16.03
2019-05-09T10:19:57.609Z,16.70
2019-05-09T10:22:30.827Z,23.80
2019-05-09T10:25:01.134Z,20.43
2019-05-09T10:27:31.671Z,18.07
2019-05-09T10:30:02.190Z,17.10
2019-05-09T10:32:33.681Z,13.63
2019-05-09T10:35:05.509Z,12.60
2019-05-09T10:37:38.908Z,17.97
2019-05-09T10:40:07.381Z,19.40
2019-05-09T10:42:45.289Z,15.20
2019-05-09T10:45:30.564Z,15.33
2019-05-09T10:48:00.879Z,11.50
2019-05-09T10:50:33.911Z,12.40
2019-05-09T10:53:02.763Z,11.43
2019-05-09T10:55:32.882Z,18.20
2019-05-09T10:58:07.844Z,14.43
2019-05-09T11:00:39.170Z,9.20
2019-05-09T11:03:10.202Z,9.13
2019-05-09T11:05:40.519Z,10.80
2019-05-09T11:08:10.848Z,18.77
2019-05-09T11:10:41.170Z,16.40
2019-05-09T11:13:11.490Z,14.67
2019-05-09T11:15:41.844Z,14.37
2019-05-09T11:18:12.139Z,16.07
2019-05-09T11:20:42.259Z,13.77
2019-05-09T11:23:12.585Z,10.80
2019-05-09T11:25:42.910Z,12.20
2019-05-09T11:28:15.140Z,12.27
2019-05-09T11:30:44.991Z,13.13
2019-05-09T11:33:15.319Z,18.67
2019-05-09T11:35:47.820Z,13.83
2019-05-09T11:38:29.211Z,10.07
2019-05-09T11:40:48.947Z,11.27
2019-05-09T11:43:19.068Z,8.83
2019-05-09T11:45:49.187Z,6.33
2019-05-09T11:48:19.314Z,13.10
2019-05-09T11:50:49.628Z,11.40
2019-05-09T11:53:19.958Z,10.10
2019-05-09T11:55:50.040Z,14.23
2019-05-09T11:58:20.404Z,8.00
2019-05-09T12:00:50.719Z,9.40
2019-05-09T12:03:23.911Z,6.73
2019-05-09T12:05:54.038Z,9.43
2019-05-09T12:08:24.151Z,10.90
2019-05-09T12:10:54.476Z,8.60
2019-05-09T12:13:25.003Z,8.50
2019-05-09T12:15:55.122Z,6.83
2019-05-09T12:18:25.565Z,9.73
2019-05-09T12:20:57.507Z,10.83
2019-05-09T12:23:29.176Z,7.17
2019-05-09T12:26:00.422Z,7.10
2019-05-09T12:28:31.044Z,7.50
2019-05-09T12:31:01.377Z,7.80
2019-05-09T12:33:33.294Z,8.53
2019-05-09T12:36:03.451Z,7.27
2019-05-09T12:38:33.579Z,12.87
2019-05-09T12:41:04.655Z,11.50
2019-05-09T12:43:35.191Z,7.07
2019-05-09T12:46:08.453Z,15.70
2019-05-09T12:48:37.322Z,10.30
2019-05-09T12:51:08.195Z,5.83
2019-05-09T12:53:39.585Z,7.93
2019-05-09T12:56:10.142Z,7.90
2019-05-09T12:58:40.437Z,9.90
2019-05-09T13:01:10.570Z,9.27
2019-05-09T13:03:41.192Z,10.73
2019-05-09T13:06:11.453Z,6.80
2019-05-09T13:08:42.781Z,5.47
2019-05-09T13:11:12.905Z,15.00
2019-05-09T13:13:43.227Z,4.73
2019-05-09T13:16:20.923Z,8.63
2019-05-09T13:19:04.967Z,6.00
2019-05-09T13:21:38.262Z,5.07
2019-05-09T13:24:08.425Z,4.93
2019-05-09T13:26:39.318Z,3.93
2019-05-09T13:29:09.648Z,10.77
2019-05-09T13:31:39.966Z,6.10
2019-05-09T13:34:10.292Z,13.77
2019-05-09T13:36:40.531Z,9.57
2019-05-09T13:39:10.948Z,12.30
2019-05-09T13:41:42.285Z,9.83
2019-05-09T13:44:13.966Z,10.80
2019-05-09T13:46:44.383Z,10.50
2019-05-09T13:49:15.716Z,6.07
2019-05-09T13:51:54.943Z,7.23
2019-05-09T13:54:18.434Z,11.23
2019-05-09T13:56:56.578Z,6.87
2019-05-09T13:59:21.035Z,5.60
2019-05-09T14:01:51.171Z,9.57
2019-05-09T14:04:21.263Z,7.70
2019-05-09T14:06:51.449Z,8.90
2019-05-09T14:09:22.199Z,7.10
2019-05-09T14:11:52.323Z,5.20
2019-05-09T14:14:22.642Z,9.23
2019-05-09T14:16:52.716Z,12.77
2019-05-09T14:19:31.736Z,10.40
2019-05-09T14:21:55.060Z,8.40
2019-05-09T14:24:25.167Z,11.47
2019-05-09T14:26:58.050Z,7.90
2019-05-09T14:29:30.933Z,8.60
2019-05-09T14:31:58.801Z,7.10
2019-05-09T14:34:30.229Z,5.23
2019-05-09T14:37:00.680Z,10.10
2019-05-09T14:39:31.005Z,11.37
2019-05-09T14:42:01.330Z,6.90
2019-05-09T14:44:31.653Z,10.30
2019-05-09T14:47:02.212Z,4.53
2019-05-09T14:49:40.291Z,3.50
2019-05-09T14:52:04.670Z,6.03
2019-05-09T14:54:35.614Z,6.70
2019-05-09T14:57:05.935Z,7.97
2019-05-09T14:59:38.222Z,7.03
2019-05-09T15:02:09.116Z,9.23
2019-05-09T15:04:39.776Z,9.57
2019-05-09T15:07:09.894Z,9.30
2019-05-09T15:09:40.221Z,11.53
2019-05-09T15:12:10.755Z,5.20
2019-05-09T15:14:40.931Z,6.33
2019-05-09T15:17:12.144Z,17.63
2019-05-09T15:19:56.416Z,6.90
2019-05-09T15:22:14.297Z,11.90
2019-05-09T15:24:44.414Z,5.70
2019-05-09T15:27:14.745Z,5.90
2019-05-09T15:29:44.854Z,12.70
2019-05-09T15:32:14.973Z,10.27
2019-05-09T15:34:45.096Z,12.40
2019-05-09T15:37:18.655Z,8.07
2019-05-09T15:39:48.686Z,10.73
2019-05-09T15:42:19.037Z,5.13
2019-05-09T15:44:49.382Z,4.43
2019-05-09T15:47:30.129Z,9.00
2019-05-09T15:50:15.437Z,2.97
2019-05-09T15:52:32.005Z,4.43
2019-05-09T15:55:03.765Z,7.40
2019-05-09T15:57:34.093Z,4.17
2019-05-09T16:00:08.247Z,7.33
2019-05-09T16:02:39.110Z,2.80
2019-05-09T16:05:10.729Z,2.83
2019-05-09T16:07:41.322Z,3.40
2019-05-09T16:10:11.865Z,5.20
2019-05-09T16:12:42.177Z,2.63
2019-05-09T16:15:12.911Z,1.77
2019-05-09T16:17:43.235Z,4.40
2019-05-09T16:20:14.785Z,3.00
2019-05-09T16:22:45.112Z,2.63
2019-05-09T16:25:15.847Z,3.37
2019-05-09T16:27:48.275Z,3.17
2019-05-09T16:30:17.722Z,2.10
2019-05-09T16:32:48.199Z,3.20
2019-05-09T16:35:18.787Z,3.43
2019-05-09T16:37:58.269Z,2.10
2019-05-09T16:40:20.660Z,4.83
2019-05-09T16:42:50.980Z,4.63
2019-05-09T16:45:21.306Z,2.13
2019-05-09T16:47:51.831Z,3.30
2019-05-09T16:50:22.690Z,5.10
2019-05-09T16:52:52.900Z,3.53
2019-05-09T16:55:28.807Z,4.17
2019-05-09T16:57:57.334Z,3.07
2019-05-09T17:00:33.487Z,3.40
2019-05-09T17:03:03.814Z,2.00
2019-05-09T17:05:37.315Z,3.87
2019-05-09T17:08:08.191Z,2.50
2019-05-09T17:10:40.113Z,3.33
2019-05-09T17:13:10.301Z,3.70
2019-05-09T17:15:40.997Z,3.17
2019-05-09T17:18:11.694Z,3.40
2019-05-09T17:20:47.803Z,3.43
2019-05-09T17:23:19.728Z,2.10
2019-05-09T17:25:50.245Z,2.53
2019-05-09T17:28:20.572Z,2.83
2019-05-09T17:30:50.849Z,3.30
2019-05-09T17:33:22.403Z,3.73
2019-05-09T17:35:52.565Z,3.93
2019-05-09T17:38:23.097Z,3.67
2019-05-09T17:40:54.444Z,2.53
2019-05-09T17:43:24.767Z,2.17
2019-05-09T17:45:54.888Z,2.63
2019-05-09T17:48:25.004Z,2.30
2019-05-09T17:50:57.653Z,1.93
2019-05-09T17:53:29.207Z,4.13
2019-05-09T17:55:59.090Z,2.93
2019-05-09T17:58:33.057Z,5.67
2019-05-09T18:01:01.131Z,2.30
2019-05-09T18:03:31.260Z,2.90
2019-05-09T18:06:02.396Z,6.10
2019-05-09T18:08:32.522Z,3.83
2019-05-09T18:11:02.838Z,6.67
2019-05-09T18:13:33.083Z,2.43
2019-05-09T18:16:03.494Z,3.20
2019-05-09T18:18:33.603Z,5.23
2019-05-09T18:21:04.443Z,3.20
2019-05-09T18:23:34.467Z,5.50
2019-05-09T18:26:07.825Z,7.40
2019-05-09T18:28:38.516Z,6.40
2019-05-09T18:31:09.119Z,5.07
2019-05-09T18:33:41.066Z,5.63
2019-05-09T18:36:11.411Z,6.43
2019-05-09T18:38:41.522Z,4.00
2019-05-09T18:41:11.671Z,5.90
2019-05-09T18:43:44.532Z,5.57
2019-05-09T18:46:18.610Z,9.03
2019-05-09T18:48:50.421Z,6.90
2019-05-09T18:51:20.733Z,5.77
2019-05-09T18:53:51.248Z,4.07
2019-05-09T18:56:21.372Z,5.67
2019-05-09T18:58:51.499Z,4.17
2019-05-09T19:01:21.833Z,5.07
2019-05-09T19:03:52.146Z,5.77
2019-05-09T19:06:22.457Z,5.17
2019-05-09T19:08:52.610Z,4.30
2019-05-09T19:11:24.340Z,3.67
2019-05-09T19:13:54.872Z,4.83
2019-05-09T19:16:28.060Z,7.23
2019-05-09T19:19:08.416Z,5.80
2019-05-09T19:21:40.171Z,4.40
2019-05-09T19:24:11.119Z,5.23
2019-05-09T19:26:41.348Z,4.87
2019-05-09T19:29:11.771Z,8.33
2019-05-09T19:31:42.082Z,5.50
2019-05-09T19:34:12.619Z,5.43
2019-05-09T19:36:42.938Z,5.60
2019-05-09T19:39:13.686Z,4.10
2019-05-09T19:41:43.993Z,6.03
2019-05-09T19:44:14.527Z,8.47
2019-05-09T19:46:44.643Z,14.47
2019-05-09T19:49:14.797Z,8.53
2019-05-09T19:51:45.095Z,5.70
2019-05-09T19:54:15.817Z,5.87
2019-05-09T19:56:46.155Z,5.43
2019-05-09T19:59:16.610Z,9.17
2019-05-09T20:01:46.720Z,8.60
2019-05-09T20:04:16.910Z,4.83
2019-05-09T20:06:47.236Z,8.63
2019-05-09T20:09:18.908Z,7.13
2019-05-09T20:11:53.411Z,5.27
2019-05-09T20:14:25.348Z,5.13
2019-05-09T20:16:58.577Z,5.43
2019-05-09T20:19:28.893Z,5.50
2019-05-09T20:22:02.692Z,8.37
2019-05-09T20:24:33.228Z,7.93
2019-05-09T20:27:04.984Z,6.00
2019-05-09T20:29:35.644Z,5.00
2019-05-09T20:32:06.060Z,9.53
2019-05-09T20:34:38.520Z,8.73
2019-05-09T20:37:10.305Z,10.10
2019-05-09T20:39:48.804Z,6.77
2019-05-09T20:42:17.988Z,6.33
2019-05-09T20:44:48.306Z,7.03
2019-05-09T20:47:18.632Z,6.63
2019-05-09T20:49:49.160Z,5.90
2019-05-09T20:52:21.882Z,6.10
2019-05-09T20:54:52.471Z,4.97
2019-05-09T20:57:23.408Z,5.23
2019-05-09T20:59:53.733Z,7.57
2019-05-09T21:02:24.261Z,5.10
2019-05-09T21:04:54.792Z,5.57
2019-05-09T21:07:26.142Z,6.20
2019-05-09T21:09:56.394Z,5.80
2019-05-09T21:12:26.786Z,8.20
2019-05-09T21:14:57.316Z,7.67
2019-05-09T21:17:27.643Z,8.10
2019-05-09T21:19:58.187Z,8.67
2019-05-09T21:22:29.059Z,7.77
2019-05-09T21:25:04.199Z,5.80
2019-05-09T21:27:36.107Z,6.00
2019-05-09T21:30:08.070Z,6.10
2019-05-09T21:32:38.394Z,6.30
2019-05-09T21:35:08.925Z,7.20
2019-05-09T21:37:41.295Z,6.63
2019-05-09T21:40:12.230Z,7.43
2019-05-09T21:42:42.359Z,7.80
2019-05-09T21:45:12.879Z,9.30
2019-05-09T21:47:43.208Z,7.70
2019-05-09T21:50:14.344Z,6.90
2019-05-09T21:52:46.104Z,9.80
2019-05-09T21:55:16.427Z,6.83
2019-05-09T21:57:46.766Z,7.63
2019-05-09T22:00:21.597Z,6.53
2019-05-09T22:02:51.696Z,6.00
2019-05-09T22:05:22.229Z,6.80
2019-05-09T22:07:52.564Z,6.90
2019-05-09T22:10:22.669Z,5.90
2019-05-09T22:12:52.790Z,6.07
2019-05-09T22:15:22.911Z,5.97
2019-05-09T22:17:53.028Z,5.93
2019-05-09T22:20:23.358Z,6.13
2019-05-09T22:22:54.907Z,5.30
2019-05-09T22:25:25.024Z,11.27
2019-05-09T22:27:55.144Z,6.77
2019-05-09T22:30:25.547Z,5.47
2019-05-09T22:32:55.588Z,4.67
2019-05-09T22:35:25.705Z,11.23
2019-05-09T22:37:56.394Z,5.87
2019-05-09T22:40:27.133Z,5.17
2019-05-09T22:42:57.294Z,5.50
2019-05-09T22:45:27.415Z,9.07
2019-05-09T22:47:57.531Z,5.90
2019-05-09T22:50:27.648Z,4.17
2019-05-09T22:52:58.465Z,7.60
2019-05-09T22:55:29.119Z,4.70
2019-05-09T22:57:59.234Z,6.13
2019-05-09T23:00:29.560Z,6.20
2019-05-09T23:02:59.679Z,4.50
2019-05-09T23:05:30.009Z,6.17
2019-05-09T23:08:00.121Z,5.40
2019-05-09T23:10:30.450Z,5.93
2019-05-09T23:13:00.568Z,5.70
2019-05-09T23:15:31.093Z,3.70
2019-05-09T23:18:01.220Z,6.50
2019-05-09T23:20:48.144Z,7.53
2019-05-09T23:23:26.008Z,5.17
2019-05-09T23:25:56.147Z,4.80
2019-05-09T23:28:27.103Z,4.10
2019-05-09T23:30:58.854Z,4.70
2019-05-09T23:33:30.806Z,5.20
2019-05-09T23:36:00.940Z,4.80
2019-05-09T23:38:31.453Z,4.43
2019-05-09T23:41:01.675Z,5.30
2019-05-09T23:43:31.903Z,4.83
2019-05-09T23:46:02.013Z,6.63
2019-05-09T23:48:32.353Z,5.60
2019-05-09T23:51:02.362Z,6.20
2019-05-09T23:53:36.891Z,5.30
2019-05-09T23:56:25.020Z,5.13
2019-05-09T23:59:12.956Z,5.30
